createdAt,value
2022-12-17T00:01:37.243Z,-8.25
2022-12-17T00:07:05.218Z,-8.38
2022-12-17T00:12:25.724Z,-8.48
2022-12-17T00:17:45.947Z,-8.50
2022-12-17T00:23:06.492Z,-8.48
2022-12-17T00:28:32.895Z,-8.54
2022-12-17T00:33:55.763Z,-8.58
2022-12-17T00:39:16.701Z,-8.68
2022-12-17T00:44:36.883Z,-8.69
2022-12-17T00:49:57.565Z,-8.82
2022-12-17T00:55:19.167Z,-8.89
2022-12-17T01:00:39.564Z,-8.98
2022-12-17T01:06:01.261Z,-9.05
2022-12-17T01:11:25.067Z,-9.10
2022-12-17T01:16:45.683Z,-9.14
2022-12-17T01:22:05.969Z,-9.11
2022-12-17T01:27:27.002Z,-9.10
2022-12-17T01:32:47.158Z,-9.13
2022-12-17T01:38:07.259Z,-9.14
2022-12-17T01:43:31.016Z,-9.19
2022-12-17T01:48:56.750Z,-9.22
2022-12-17T01:54:17.209Z,-9.32
2022-12-17T01:59:42.530Z,-9.52
2022-12-17T02:05:02.824Z,-9.56
2022-12-17T02:10:23.336Z,-9.71
2022-12-17T02:15:56.638Z,-9.71
2022-12-17T02:21:18.886Z,-9.74
2022-12-17T02:26:58.529Z,-9.68
2022-12-17T02:32:21.920Z,-9.63
2022-12-17T02:37:44.716Z,-9.68
2022-12-17T02:43:07.053Z,-9.73
2022-12-17T02:48:30.979Z,-9.87
2022-12-17T02:53:52.886Z,-9.94
2022-12-17T02:59:13.250Z,-9.91
2022-12-17T03:04:36.600Z,-9.92
2022-12-17T03:09:57.007Z,-9.91
2022-12-17T03:15:17.942Z,-10.07
2022-12-17T03:20:38.256Z,-10.22
2022-12-17T03:25:58.671Z,-10.31
2022-12-17T03:31:19.630Z,-10.28
2022-12-17T03:36:40.382Z,-10.26
2022-12-17T03:42:00.626Z,-10.34
2022-12-17T03:47:20.986Z,-10.33
2022-12-17T03:52:41.096Z,-10.38
2022-12-17T03:58:01.411Z,-10.43
2022-12-17T04:03:21.766Z,-10.48
2022-12-17T04:08:42.194Z,-10.50
2022-12-17T04:14:02.295Z,-10.48
2022-12-17T04:19:22.927Z,-10.46
2022-12-17T04:24:43.193Z,-10.45
2022-12-17T04:30:03.379Z,-10.48
2022-12-17T04:35:24.164Z,-10.47
2022-12-17T04:40:44.419Z,-10.64
2022-12-17T04:46:08.411Z,-10.67
2022-12-17T04:51:28.692Z,-10.79
2022-12-17T04:56:48.901Z,-10.76
2022-12-17T05:02:10.859Z,-10.82
2022-12-17T05:07:31.476Z,-10.94
2022-12-17T05:12:51.668Z,-10.91
2022-12-17T05:18:13.251Z,-10.85
2022-12-17T05:23:34.058Z,-10.86
2022-12-17T05:28:54.601Z,-10.94
2022-12-17T05:34:16.566Z,-10.95
2022-12-17T05:39:37.017Z,-10.91
2022-12-17T05:44:57.289Z,-10.93
2022-12-17T05:50:17.443Z,-10.90
2022-12-17T05:55:37.554Z,-10.86
2022-12-17T06:00:57.662Z,-10.84
2022-12-17T06:06:17.709Z,-10.85
2022-12-17T06:11:37.893Z,-10.90
2022-12-17T06:16:58.108Z,-11.05
2022-12-17T06:22:19.423Z,-11.16
2022-12-17T06:27:39.756Z,-11.12
2022-12-17T06:33:00.022Z,-10.84
2022-12-17T06:38:22.990Z,-10.57
2022-12-17T06:43:43.383Z,-10.18
2022-12-17T06:49:03.845Z,-9.92
2022-12-17T06:54:24.021Z,-9.77
2022-12-17T06:59:44.237Z,-9.70
2022-12-17T07:05:04.512Z,-9.80
2022-12-17T07:10:25.523Z,-9.90
2022-12-17T07:15:45.832Z,-10.01
2022-12-17T07:21:07.467Z,-10.01
2022-12-17T07:26:27.707Z,-9.81
2022-12-17T07:31:48.001Z,-9.63
2022-12-17T07:37:08.324Z,-9.45
2022-12-17T07:42:28.926Z,-9.50
2022-12-17T07:47:49.200Z,-9.48
2022-12-17T07:53:19.767Z,-9.42
2022-12-17T07:58:40.172Z,-9.44
2022-12-17T08:04:00.505Z,-9.50
2022-12-17T08:09:20.690Z,-9.53
2022-12-17T08:14:41.081Z,-9.63
2022-12-17T08:20:01.417Z,-9.47
2022-12-17T08:25:21.769Z,-9.26
2022-12-17T08:30:42.492Z,-9.02
2022-12-17T08:36:17.389Z,-8.83
2022-12-17T08:41:46.609Z,-8.69
2022-12-17T08:47:10.138Z,-8.42
2022-12-17T08:52:32.833Z,-8.25
2022-12-17T08:57:53.066Z,-8.24
2022-12-17T09:03:20.943Z,-8.31
2022-12-17T09:08:41.259Z,-8.37
2022-12-17T09:14:01.161Z,-8.34
2022-12-17T09:19:25.014Z,-8.25
2022-12-17T09:24:45.179Z,-8.16
2022-12-17T09:30:05.401Z,-8.03
2022-12-17T09:35:25.658Z,-7.96
2022-12-17T09:40:48.385Z,-7.86
2022-12-17T09:46:24.454Z,-7.77
2022-12-17T09:51:47.295Z,-7.63
2022-12-17T09:57:07.864Z,-7.47
2022-12-17T10:02:45.497Z,-7.31
2022-12-17T10:08:07.007Z,-7.22
2022-12-17T10:13:39.689Z,-7.08
2022-12-17T10:19:01.229Z,-6.98
2022-12-17T10:24:26.998Z,-6.88
2022-12-17T10:29:50.556Z,-6.81
2022-12-17T10:35:10.915Z,-6.75
2022-12-17T10:40:42.741Z,-6.64
2022-12-17T10:46:12.946Z,-6.53
2022-12-17T10:51:42.812Z,-6.46
2022-12-17T10:57:11.551Z,-6.34
2022-12-17T11:02:44.029Z,-6.22
2022-12-17T11:08:04.710Z,-6.14
2022-12-17T11:13:29.992Z,-6.03
2022-12-17T11:19:13.660Z,-5.87
2022-12-17T11:24:42.868Z,-5.88
2022-12-17T11:30:06.774Z,-5.81
2022-12-17T11:35:44.859Z,-5.69
2022-12-17T11:41:13.813Z,-5.61
2022-12-17T11:46:46.466Z,-5.67
2022-12-17T11:52:27.734Z,-5.69
2022-12-17T11:58:39.654Z,-5.77
2022-12-17T12:04:21.964Z,-5.72
2022-12-17T12:10:08.301Z,-5.72
2022-12-17T12:15:31.435Z,-5.58
2022-12-17T12:21:16.879Z,-5.44
2022-12-17T12:26:46.653Z,-5.53
2022-12-17T12:32:20.099Z,-5.41
2022-12-17T12:37:44.490Z,-5.45
2022-12-17T12:43:15.608Z,-5.32
2022-12-17T12:49:01.984Z,-5.14
2022-12-17T12:54:45.653Z,-4.96
2022-12-17T13:00:08.034Z,-5.02
2022-12-17T13:05:41.047Z,-5.27
2022-12-17T13:10:42.665Z,-5.34
2022-12-17T13:15:48.868Z,-5.46
2022-12-17T13:21:03.104Z,-5.48
2022-12-17T13:26:30.015Z,-5.44
2022-12-17T13:31:51.531Z,-5.53
2022-12-17T13:37:08.539Z,-5.61
2022-12-17T13:42:34.910Z,-5.68
2022-12-17T13:47:38.331Z,-5.75
2022-12-17T13:52:39.986Z,-5.76
2022-12-17T13:57:45.791Z,-5.72
2022-12-17T14:02:48.942Z,-5.72
2022-12-17T14:07:51.537Z,-5.70
2022-12-17T14:13:04.269Z,-5.68
2022-12-17T14:18:06.265Z,-5.65
2022-12-17T14:23:15.340Z,-5.66
2022-12-17T14:28:29.133Z,-5.65
2022-12-17T14:33:36.849Z,-5.76
2022-12-17T14:38:39.274Z,-5.81
2022-12-17T14:43:41.153Z,-5.89
2022-12-17T14:49:01.123Z,-5.95
2022-12-17T14:54:33.302Z,-6.00
2022-12-17T14:59:38.275Z,-6.04
2022-12-17T15:04:40.432Z,-6.12
2022-12-17T15:09:42.629Z,-6.20
2022-12-17T15:14:44.691Z,-6.28
2022-12-17T15:19:50.165Z,-6.37
2022-12-17T15:24:55.815Z,-6.57
2022-12-17T15:29:57.551Z,-6.58
2022-12-17T15:35:00.099Z,-6.54
2022-12-17T15:40:02.091Z,-6.59
2022-12-17T15:45:04.191Z,-6.62
2022-12-17T15:50:07.308Z,-6.72
2022-12-17T15:55:10.230Z,-6.85
2022-12-17T16:00:13.065Z,-6.92
2022-12-17T16:05:15.388Z,-6.97
2022-12-17T16:10:18.255Z,-7.02
2022-12-17T16:15:19.904Z,-7.13
2022-12-17T16:20:21.576Z,-7.22
2022-12-17T16:25:23.278Z,-7.29
2022-12-17T16:30:25.046Z,-7.32
2022-12-17T16:35:29.965Z,-7.40
2022-12-17T16:40:33.241Z,-7.42
2022-12-17T16:45:34.848Z,-7.45
2022-12-17T16:50:36.604Z,-7.45
2022-12-17T16:55:56.540Z,-7.53
2022-12-17T17:01:00.225Z,-7.49
2022-12-17T17:06:08.069Z,-7.54
2022-12-17T17:11:24.584Z,-7.62
2022-12-17T17:16:28.035Z,-7.69
2022-12-17T17:21:41.239Z,-7.90
2022-12-17T17:26:43.239Z,-7.95
2022-12-17T17:32:09.345Z,-7.86
2022-12-17T17:37:09.983Z,-7.88
2022-12-17T17:42:12.702Z,-7.88
2022-12-17T17:47:15.149Z,-7.91
2022-12-17T17:52:17.944Z,-8.04
2022-12-17T17:57:19.596Z,-8.06
2022-12-17T18:02:21.399Z,-8.12
2022-12-17T18:07:26.055Z,-8.14
2022-12-17T18:12:47.303Z,-8.17
2022-12-17T18:17:52.086Z,-8.18
2022-12-17T18:22:53.889Z,-8.29
2022-12-17T18:27:55.623Z,-8.35
2022-12-17T18:32:57.459Z,-8.44
2022-12-17T18:37:59.439Z,-8.50
2022-12-17T18:43:19.934Z,-8.62
2022-12-17T18:48:21.625Z,-8.73
2022-12-17T18:53:24.781Z,-8.79
2022-12-17T18:58:26.486Z,-8.83
2022-12-17T19:03:28.292Z,-8.91
2022-12-17T19:08:30.025Z,-9.00
2022-12-17T19:13:33.260Z,-9.11
2022-12-17T19:18:35.298Z,-9.14
2022-12-17T19:23:37.920Z,-9.27
2022-12-17T19:28:40.992Z,-9.34
2022-12-17T19:33:42.720Z,-9.47
2022-12-17T19:38:45.308Z,-9.63
2022-12-17T19:43:48.956Z,-9.72
2022-12-17T19:48:51.811Z,-9.72
2022-12-17T19:53:55.578Z,-9.70
2022-12-17T19:59:02.063Z,-9.82
2022-12-17T20:04:04.806Z,-9.84
2022-12-17T20:09:06.468Z,-9.93
2022-12-17T20:14:12.124Z,-9.91
2022-12-17T20:19:16.592Z,-9.97
2022-12-17T20:24:18.585Z,-10.15
2022-12-17T20:29:21.821Z,-10.15
2022-12-17T20:34:24.260Z,-10.20
2022-12-17T20:39:28.204Z,-10.22
2022-12-17T20:44:30.274Z,-10.20
2022-12-17T20:49:31.957Z,-10.32
2022-12-17T20:54:34.236Z,-10.42
2022-12-17T20:59:35.905Z,-10.33
2022-12-17T21:04:37.510Z,-10.20
2022-12-17T21:09:39.099Z,-10.17
2022-12-17T21:14:40.983Z,-10.18
2022-12-17T21:19:42.567Z,-9.99
2022-12-17T21:24:44.324Z,-9.78
2022-12-17T21:29:46.908Z,-9.55
2022-12-17T21:34:48.650Z,-9.25
2022-12-17T21:39:52.824Z,-8.92
2022-12-17T21:44:58.196Z,-8.66
2022-12-17T21:50:00.138Z,-8.51
2022-12-17T21:55:01.715Z,-8.36
2022-12-17T22:00:04.068Z,-8.04
2022-12-17T22:05:06.229Z,-7.88
2022-12-17T22:10:33.112Z,-7.99
2022-12-17T22:15:31.021Z,-7.95
2022-12-17T22:20:36.129Z,-7.72
2022-12-17T22:25:38.585Z,-7.63
2022-12-17T22:30:59.236Z,-7.55
2022-12-17T22:37:45.432Z,-7.50
2022-12-17T22:44:49.261Z,-7.44
2022-12-17T22:47:05.928Z,-7.47
2022-12-17T22:52:07.516Z,-7.46
2022-12-17T22:57:36.204Z,-7.35
2022-12-17T23:02:30.865Z,-7.28
2022-12-17T23:07:32.509Z,-7.38
2022-12-17T23:12:52.879Z,-7.80
2022-12-17T23:17:57.328Z,-7.97
2022-12-17T23:22:59.577Z,-7.94
2022-12-17T23:28:01.222Z,-7.80
2022-12-17T23:33:04.767Z,-7.81
2022-12-17T23:38:06.634Z,-7.77
2022-12-17T23:43:09.701Z,-7.77
2022-12-17T23:48:14.580Z,-7.70
2022-12-17T23:53:16.285Z,-7.97
2022-12-17T23:58:17.987Z,-7.95
